Time;durP1;ratioP1;P1;durP2;ratioP2;P2;SDS_P1;SDS_P2;PMS_P1;PMS_P2;Temp;Humidity;BMP_temperature;BMP_pressure;BME280_temperature;BME280_humidity;BME280_pressure;Samples;Min_cycle;Max_cycle;Signal;HPM_P1;HPM_P2
2022/07/18 00:00:40;;;;;;;5.55;3.83;;;16.50;94.40;;;;;;4987034;28;20046;-81
2022/07/18 00:03:06;;;;;;;4.55;4.13;;;16.50;94.40;;;;;;4980646;28;20034;-82
2022/07/18 00:05:31;;;;;;;4.28;3.55;;;16.50;94.50;;;;;;4980639;28;20069;-81
2022/07/18 00:07:57;;;;;;;7.40;3.47;;;16.50;94.40;;;;;;4972242;28;20027;-80
2022/07/18 00:10:23;;;;;;;5.78;3.38;;;16.50;94.40;;;;;;4956693;28;20037;-81
2022/07/18 00:12:49;;;;;;;5.68;3.55;;;16.50;94.40;;;;;;4990371;28;20023;-81
2022/07/18 00:15:15;;;;;;;5.10;3.90;;;16.50;94.70;;;;;;4990189;28;20054;-82
2022/07/18 00:17:41;;;;;;;5.43;3.63;;;16.40;94.20;;;;;;4973000;28;20038;-84
2022/07/18 00:20:09;;;;;;;5.28;3.75;;;16.40;94.40;;;;;;4993030;28;20264;-82
2022/07/18 00:22:35;;;;;;;5.07;3.63;;;16.40;94.40;;;;;;4979467;28;20542;-82
2022/07/18 00:25:01;;;;;;;7.60;3.88;;;16.50;94.50;;;;;;4977651;28;20405;-81
2022/07/18 00:27:27;;;;;;;4.35;3.78;;;16.50;94.60;;;;;;4992796;28;20022;-83
2022/07/18 00:29:53;;;;;;;7.43;4.15;;;16.50;94.50;;;;;;4990296;28;20029;-82
2022/07/18 00:32:19;;;;;;;6.28;3.72;;;16.50;94.50;;;;;;4973984;28;20113;-82
2022/07/18 00:34:45;;;;;;;5.57;4.18;;;16.50;94.50;;;;;;4988940;28;20022;-82
2022/07/18 00:37:10;;;;;;;4.97;3.72;;;16.50;94.60;;;;;;4979209;28;20591;-83
2022/07/18 00:39:36;;;;;;;6.75;3.55;;;16.50;94.40;;;;;;4989571;28;20026;-82
2022/07/18 00:42:02;;;;;;;6.78;3.72;;;16.50;94.50;;;;;;4987883;28;20014;-82
2022/07/18 00:44:29;;;;;;;4.35;3.47;;;16.50;94.10;;;;;;4989424;28;20034;-84
2022/07/18 00:46:57;;;;;;;3.70;3.17;;;16.50;94.00;;;;;;4984801;28;20436;-83
2022/07/18 00:49:24;;;;;;;7.25;3.70;;;16.50;93.90;;;;;;4977608;28;20375;-83
2022/07/18 00:51:50;;;;;;;4.37;3.97;;;16.50;93.90;;;;;;4969433;28;20019;-82
2022/07/18 00:54:16;;;;;;;5.38;3.40;;;16.50;94.00;;;;;;4987982;28;20034;-83
2022/07/18 00:56:43;;;;;;;4.78;3.75;;;16.50;94.00;;;;;;4958521;28;20047;-83
2022/07/18 00:59:10;;;;;;;7.00;4.15;;;16.50;94.00;;;;;;4973601;28;20027;-81
2022/07/18 01:01:42;;;;;;;6.30;4.13;;;16.60;93.90;;;;;;4977299;28;20062;-80
2022/07/18 01:04:14;;;;;;;6.25;4.35;;;16.60;93.80;;;;;;4996000;28;20038;-81
2022/07/18 01:06:40;;;;;;;6.50;4.15;;;16.60;93.80;;;;;;4996491;28;20019;-81
2022/07/18 01:09:06;;;;;;;4.70;4.07;;;16.60;93.80;;;;;;4990492;28;20061;-81
2022/07/18 01:11:33;;;;;;;5.80;4.38;;;16.60;93.80;;;;;;4995265;28;20070;-80
2022/07/18 01:14:04;;;;;;;5.70;3.78;;;16.60;93.90;;;;;;4988469;28;20387;-81
2022/07/18 01:16:30;;;;;;;5.80;3.70;;;16.60;93.90;;;;;;4972758;28;20023;-81
2022/07/18 01:18:56;;;;;;;5.25;3.70;;;16.70;94.00;;;;;;4992487;28;20023;-81
2022/07/18 01:21:22;;;;;;;6.03;4.03;;;16.70;93.70;;;;;;4987644;28;20038;-80
2022/07/18 01:23:48;;;;;;;5.40;4.13;;;16.60;93.50;;;;;;4987385;28;20066;-81
2022/07/18 01:26:16;;;;;;;5.78;3.60;;;16.70;93.40;;;;;;4989937;28;20030;-82
2022/07/18 01:28:43;;;;;;;6.18;4.18;;;16.70;93.40;;;;;;4993081;28;20073;-81
2022/07/18 01:31:09;;;;;;;6.00;3.47;;;16.70;93.40;;;;;;4981409;28;20480;-81
2022/07/18 01:33:35;;;;;;;4.45;3.65;;;16.70;93.40;;;;;;4984165;28;20260;-82
2022/07/18 01:36:03;;;;;;;5.35;3.28;;;16.70;93.40;;;;;;4987271;28;20015;-83
2022/07/18 01:38:30;;;;;;;5.45;3.25;;;16.70;93.10;;;;;;4990752;28;20014;-82
2022/07/18 01:40:56;;;;;;;6.03;3.97;;;16.70;93.20;;;;;;4986400;28;20035;-83
2022/07/18 01:43:23;;;;;;;5.28;3.90;;;16.70;93.20;;;;;;4988056;28;20543;-82
2022/07/18 01:45:49;;;;;;;8.27;3.38;;;16.80;93.20;;;;;;4986070;28;20069;-82
2022/07/18 01:48:15;;;;;;;5.80;3.42;;;16.80;93.10;;;;;;4975871;28;20035;-82
2022/07/18 01:50:41;;;;;;;6.43;3.60;;;16.80;93.00;;;;;;4986066;28;20518;-83
2022/07/18 01:53:07;;;;;;;4.30;3.15;;;16.80;93.00;;;;;;4982306;28;20031;-82
2022/07/18 01:55:33;;;;;;;10.35;4.35;;;16.90;92.90;;;;;;4985777;28;20526;-80
2022/07/18 01:57:59;;;;;;;7.97;3.55;;;16.90;92.70;;;;;;4976667;28;20053;-82
2022/07/18 02:00:25;;;;;;;4.72;3.40;;;16.90;92.50;;;;;;4982716;28;20090;-82
2022/07/18 02:02:51;;;;;;;6.78;3.05;;;16.90;92.40;;;;;;4985843;28;20038;-81
2022/07/18 02:05:16;;;;;;;5.10;3.17;;;16.90;92.40;;;;;;4994921;28;20023;-83
2022/07/18 02:07:42;;;;;;;6.30;3.33;;;16.90;92.30;;;;;;4990032;28;20057;-84
2022/07/18 02:10:17;;;;;;;5.32;3.38;;;16.90;92.30;;;;;;4974876;28;20023;-83
2022/07/18 02:12:44;;;;;;;4.18;3.10;;;16.90;92.30;;;;;;4983149;28;20439;-83
2022/07/18 02:15:11;;;;;;;4.13;3.50;;;16.90;92.40;;;;;;4993111;28;20021;-84
2022/07/18 02:17:38;;;;;;;7.05;3.40;;;17.00;92.30;;;;;;4986433;28;20492;-85
2022/07/18 02:20:10;;;;;;;4.47;3.97;;;17.00;93.00;;;;;;4992095;28;20515;-81
2022/07/18 02:22:36;;;;;;;7.15;5.20;;;17.00;93.70;;;;;;4969680;28;20284;-81
2022/07/18 02:25:03;;;;;;;5.65;4.05;;;17.10;93.90;;;;;;4973212;28;20027;-81
2022/07/18 02:27:29;;;;;;;7.35;4.80;;;17.20;94.00;;;;;;4987208;28;20034;-81
2022/07/18 02:29:55;;;;;;;6.25;4.43;;;17.20;94.00;;;;;;4971268;28;20026;-82
2022/07/18 02:32:23;;;;;;;8.40;5.18;;;17.20;94.00;;;;;;4987915;28;20088;-82
2022/07/18 02:34:49;;;;;;;5.82;5.15;;;17.20;94.20;;;;;;4987211;28;20044;-80
2022/07/18 02:37:15;;;;;;;9.00;4.50;;;17.20;94.30;;;;;;4969671;28;20478;-82
2022/07/18 02:39:40;;;;;;;4.60;3.97;;;17.30;94.00;;;;;;4984215;28;20038;-82
2022/07/18 02:42:07;;;;;;;8.10;4.63;;;17.30;93.60;;;;;;4987522;28;20033;-82
2022/07/18 02:44:33;;;;;;;5.85;4.40;;;17.30;93.50;;;;;;4964610;28;20395;-81
2022/07/18 02:46:59;;;;;;;6.18;3.78;;;17.30;93.60;;;;;;4983042;28;20015;-81
2022/07/18 02:49:28;;;;;;;5.85;3.85;;;17.30;93.20;;;;;;4980814;28;20026;-81
2022/07/18 02:52:02;;;;;;;7.38;3.60;;;17.40;93.00;;;;;;4979275;28;20026;-81
2022/07/18 02:54:30;;;;;;;5.78;3.47;;;17.40;92.50;;;;;;4967109;28;20018;-82
2022/07/18 02:56:56;;;;;;;5.90;3.47;;;17.40;92.20;;;;;;4979746;28;20026;-81
2022/07/18 02:59:22;;;;;;;8.38;3.60;;;17.40;91.90;;;;;;4981673;28;20042;-81
2022/07/18 03:01:51;;;;;;;4.78;3.00;;;17.40;92.00;;;;;;4986885;28;20138;-81
2022/07/18 03:04:19;;;;;;;4.28;3.20;;;17.40;91.60;;;;;;4992866;28;20041;-81
2022/07/18 03:06:46;;;;;;;6.72;3.10;;;17.50;91.10;;;;;;4994300;28;20053;-81
2022/07/18 03:09:12;;;;;;;7.97;3.22;;;17.50;90.80;;;;;;4992253;28;20034;-81
2022/07/18 03:11:38;;;;;;;3.58;2.83;;;17.50;90.80;;;;;;4982378;28;20078;-81
2022/07/18 03:14:04;;;;;;;5.68;3.15;;;17.50;90.60;;;;;;4988204;28;20038;-81
2022/07/18 03:16:29;;;;;;;4.72;3.10;;;17.60;90.60;;;;;;4981570;28;20033;-82
2022/07/18 03:18:55;;;;;;;4.80;3.10;;;17.50;90.20;;;;;;4988239;28;20023;-83
2022/07/18 03:21:21;;;;;;;5.20;2.95;;;17.50;90.40;;;;;;4979430;28;20027;-81
2022/07/18 03:23:47;;;;;;;4.95;3.40;;;17.50;90.20;;;;;;4970231;28;20084;-81
2022/07/18 03:26:13;;;;;;;4.93;3.00;;;17.40;90.20;;;;;;4985708;28;20054;-82
2022/07/18 03:28:39;;;;;;;6.00;2.75;;;17.40;90.40;;;;;;4987515;28;20027;-81
2022/07/18 03:31:05;;;;;;;5.82;3.30;;;17.40;90.40;;;;;;4982718;28;20073;-82
2022/07/18 03:33:31;;;;;;;10.40;3.53;;;17.40;90.50;;;;;;4986540;28;20061;-82
2022/07/18 03:35:56;;;;;;;4.55;3.05;;;17.40;90.50;;;;;;4981185;28;20024;-82
2022/07/18 03:38:22;;;;;;;5.05;2.60;;;17.50;90.40;;;;;;4963213;28;20027;-81
2022/07/18 03:40:48;;;;;;;5.68;2.85;;;17.50;90.20;;;;;;4957137;28;20023;-82
2022/07/18 03:43:14;;;;;;;7.10;3.30;;;17.50;90.10;;;;;;4982419;28;20136;-81
2022/07/18 03:45:40;;;;;;;10.38;3.88;;;17.50;90.60;;;;;;4981915;28;20026;-82
2022/07/18 03:48:06;;;;;;;6.22;3.47;;;17.60;90.70;;;;;;4969325;28;20027;-82
2022/07/18 03:50:33;;;;;;;4.00;3.40;;;17.70;90.80;;;;;;4987063;28;20106;-82
2022/07/18 03:52:59;;;;;;;6.00;2.95;;;17.70;90.60;;;;;;4992566;28;20022;-80
2022/07/18 03:55:26;;;;;;;7.53;3.15;;;17.80;90.60;;;;;;4970993;28;20030;-81
2022/07/18 03:57:52;;;;;;;8.70;3.30;;;17.90;90.50;;;;;;4974752;28;20041;-81
2022/07/18 04:00:18;;;;;;;6.18;3.38;;;17.90;90.50;;;;;;4987633;28;20112;-81
2022/07/18 04:02:46;;;;;;;5.25;2.92;;;17.90;90.50;;;;;;4982356;28;20027;-81
2022/07/18 04:05:14;;;;;;;6.55;3.47;;;18.00;90.20;;;;;;4991730;28;20129;-82
2022/07/18 04:07:40;;;;;;;5.85;3.03;;;18.00;90.10;;;;;;4986792;28;20106;-82
2022/07/18 04:10:07;;;;;;;4.88;3.17;;;18.10;90.40;;;;;;4987771;28;20037;-82
2022/07/18 04:12:33;;;;;;;10.07;3.80;;;18.10;89.50;;;;;;4973035;28;20073;-82
2022/07/18 04:14:59;;;;;;;4.93;3.00;;;18.10;89.70;;;;;;4971980;28;20033;-82
2022/07/18 04:17:25;;;;;;;6.53;2.95;;;18.10;89.70;;;;;;4984814;28;20019;-82
2022/07/18 04:19:51;;;;;;;8.82;3.50;;;18.10;89.60;;;;;;4988754;28;20153;-83
2022/07/18 04:22:17;;;;;;;7.60;3.15;;;18.20;89.20;;;;;;4985030;28;20031;-83
2022/07/18 04:24:43;;;;;;;6.60;3.45;;;18.30;89.20;;;;;;4986065;28;20026;-80
2022/07/18 04:27:09;;;;;;;5.55;3.20;;;18.30;88.90;;;;;;4984865;28;20023;-80
2022/07/18 04:29:37;;;;;;;7.28;3.03;;;18.40;87.10;;;;;;4982994;28;20027;-81
2022/07/18 04:32:03;;;;;;;12.95;3.63;;;18.40;86.90;;;;;;4985036;28;20030;-82
2022/07/18 04:34:29;;;;;;;5.35;3.35;;;18.40;86.60;;;;;;4980796;28;20018;-82
2022/07/18 04:36:55;;;;;;;5.80;3.63;;;18.40;87.00;;;;;;4984737;28;20065;-81
2022/07/18 04:39:21;;;;;;;8.60;3.72;;;18.40;87.30;;;;;;4961579;28;20030;-81
2022/07/18 04:41:47;;;;;;;5.97;3.67;;;18.50;87.70;;;;;;4983505;28;20030;-82
2022/07/18 04:44:13;;;;;;;5.97;3.60;;;18.60;87.10;;;;;;4976737;28;20117;-84
2022/07/18 04:46:39;;;;;;;6.80;3.15;;;18.70;86.60;;;;;;4962991;28;20014;-84
2022/07/18 04:49:05;;;;;;;4.38;3.20;;;18.90;86.10;;;;;;4975858;28;20027;-81
2022/07/18 04:51:32;;;;;;;5.10;2.70;;;18.90;85.30;;;;;;4975908;28;20027;-84
2022/07/18 04:54:00;;;;;;;7.85;3.90;;;19.00;84.90;;;;;;4958049;28;20031;-84
2022/07/18 04:56:27;;;;;;;3.58;2.35;;;19.00;85.00;;;;;;4974639;28;20034;-85
2022/07/18 04:58:53;;;;;;;7.05;3.00;;;19.00;84.90;;;;;;4975611;28;20102;-83
2022/07/18 05:01:19;;;;;;;4.40;3.00;;;19.00;85.20;;;;;;4984396;28;20062;-83
2022/07/18 05:03:45;;;;;;;5.22;2.45;;;19.10;84.00;;;;;;4986027;28;20085;-82
2022/07/18 05:06:10;;;;;;;7.40;2.85;;;19.20;81.60;;;;;;4985463;28;20027;-82
2022/07/18 05:08:36;;;;;;;5.93;3.30;;;19.30;80.70;;;;;;4971770;28;20033;-82
2022/07/18 05:11:02;;;;;;;3.70;2.67;;;19.30;80.40;;;;;;4969697;28;20507;-85
2022/07/18 05:13:28;;;;;;;8.05;5.90;;;19.30;80.60;;;;;;4972405;28;20494;-84
2022/07/18 05:15:54;;;;;;;6.35;2.90;;;19.30;79.70;;;;;;4985790;28;20101;-82
2022/07/18 05:18:19;;;;;;;6.00;4.13;;;19.20;80.20;;;;;;4966182;28;20037;-84
2022/07/18 05:20:46;;;;;;;11.70;5.53;;;19.30;80.50;;;;;;4958813;28;20027;-83
2022/07/18 05:23:14;;;;;;;4.80;2.95;;;19.30;80.80;;;;;;4977361;28;20146;-84
2022/07/18 05:25:43;;;;;;;8.75;3.38;;;19.40;80.40;;;;;;4957991;28;20027;-84
2022/07/18 05:28:09;;;;;;;5.28;3.00;;;19.40;79.10;;;;;;4958401;28;20023;-84
2022/07/18 05:30:35;;;;;;;3.95;2.50;;;19.50;77.70;;;;;;4973170;28;20102;-83
2022/07/18 05:33:00;;;;;;;8.13;3.13;;;19.50;77.80;;;;;;4973869;28;20496;-84
2022/07/18 05:35:26;;;;;;;5.68;4.28;;;19.50;77.50;;;;;;4973014;28;20077;-84
2022/07/18 05:37:52;;;;;;;11.27;5.55;;;19.50;77.30;;;;;;4971980;28;20027;-83
2022/07/18 05:40:18;;;;;;;5.32;2.95;;;19.50;77.70;;;;;;4985226;28;20019;-84
2022/07/18 05:42:44;;;;;;;4.65;3.08;;;19.50;77.10;;;;;;4956178;28;20133;-83
2022/07/18 05:45:11;;;;;;;8.32;3.38;;;19.60;77.00;;;;;;4990192;28;20076;-84
2022/07/18 05:47:37;;;;;;;4.47;3.22;;;19.60;76.80;;;;;;4973204;28;20015;-84
2022/07/18 05:50:04;;;;;;;21.70;11.63;;;19.70;76.80;;;;;;4983730;28;20061;-84
2022/07/18 05:52:30;;;;;;;10.80;4.18;;;19.60;76.30;;;;;;4982016;28;20475;-82
2022/07/18 05:54:56;;;;;;;8.15;3.83;;;19.50;76.60;;;;;;4985172;28;20027;-84
2022/07/18 05:57:22;;;;;;;6.18;3.20;;;19.50;76.30;;;;;;4960353;28;20185;-85
2022/07/18 05:59:48;;;;;;;6.07;3.20;;;19.60;76.80;;;;;;4959702;28;20157;-84
2022/07/18 06:02:14;;;;;;;8.10;4.63;;;19.80;75.30;;;;;;4980771;28;20030;-83
2022/07/18 06:04:40;;;;;;;6.10;3.70;;;19.80;75.10;;;;;;4974419;28;20034;-82
2022/07/18 06:07:06;;;;;;;7.07;4.03;;;19.80;75.00;;;;;;4987364;28;20070;-84
2022/07/18 06:09:31;;;;;;;9.05;4.53;;;19.80;75.10;;;;;;4981251;28;20786;-83
2022/07/18 06:12:01;;;;;;;7.68;4.03;;;19.90;74.70;;;;;;4967662;28;20070;-82
2022/07/18 06:14:27;;;;;;;10.00;4.07;;;20.20;73.50;;;;;;4988342;28;20759;-84
2022/07/18 06:16:53;;;;;;;7.03;3.63;;;20.70;73.00;;;;;;4988153;28;20480;-83
2022/07/18 06:19:19;;;;;;;10.10;4.35;;;21.30;71.20;;;;;;4970133;28;20051;-81
2022/07/18 06:21:45;;;;;;;7.40;5.70;;;22.00;69.10;;;;;;4988881;28;20052;-81
2022/07/18 06:24:11;;;;;;;7.65;5.28;;;;;;;;;;4975943;28;20064;-82
2022/07/18 06:26:38;;;;;;;8.50;5.60;;;;;;;;;;4987995;28;20022;-85
2022/07/18 06:29:04;;;;;;;9.57;5.15;;;;;;;;;;4963695;28;20058;-83
2022/07/18 06:31:30;;;;;;;7.32;4.15;;;;;;;;;;4985163;28;20017;-85
2022/07/18 06:33:56;;;;;;;5.18;3.92;;;;;;;;;;4964031;28;20623;-85
2022/07/18 06:36:23;;;;;;;8.15;4.43;;;;;;;;;;4976980;28;20063;-86
2022/07/18 06:38:49;;;;;;;;;;;;;;;;;;4986085;28;20052;-81
2022/07/18 06:41:16;;;;;;;8.73;4.33;;;;;;;;;;4992047;28;19910;-82
2022/07/18 06:43:42;;;;;;;6.88;5.13;;;;;;;;;;4967428;28;20487;-84
2022/07/18 06:46:08;;;;;;;9.98;5.95;;;;;;;;;;4978814;28;20023;-84
2022/07/18 06:48:35;;;;;;;8.02;5.55;;;;;;;;;;4979698;28;20387;-84
2022/07/18 06:51:10;;;;;;;7.78;4.80;;;;;;;;;;4974338;28;20027;-84
2022/07/18 06:53:36;;;;;;;9.23;4.72;;;;;;;;;;4974244;28;20412;-83
2022/07/18 06:56:02;;;;;;;7.82;4.68;;;;;;;;;;4975844;28;20031;-83
2022/07/18 06:58:33;;;;;;;7.47;5.07;;;;;;;;;;4974980;28;20121;-85
2022/07/18 07:00:59;;;;;;;10.63;5.60;;;;;;;;;;4991020;28;20015;-84
2022/07/18 07:03:26;;;;;;;9.03;5.70;;;;;;;;;;4986671;28;20038;-83
2022/07/18 07:05:52;;;;;;;8.90;5.53;;;;;;;;;;4988258;28;20018;-84
2022/07/18 07:08:18;;;;;;;11.50;6.90;;;;;;;;;;4985735;28;20403;-84
2022/07/18 07:10:44;;;;;;;10.05;5.47;;;;;;;;;;4983830;28;20050;-85
2022/07/18 07:13:10;;;;;;;9.73;6.28;;;;;;;;;;4980653;28;20385;-85
2022/07/18 07:15:36;;;;;;;13.85;7.75;;;;;;;;;;4968032;28;20019;-84
2022/07/18 07:18:02;;;;;;;12.00;6.18;;;;;;;;;;4976180;28;20031;-84
2022/07/18 07:20:28;;;;;;;11.18;7.47;;;;;;;;;;4973902;28;20046;-84
2022/07/18 07:22:56;;;;;;;11.50;6.13;;;;;;;;;;4980784;28;20044;-85
2022/07/18 07:25:24;;;;;;;11.35;6.47;;;;;;;;;;4967119;28;20365;-85
2022/07/18 07:27:56;;;;;;;9.68;6.32;;;;;;;;;;4973656;28;20030;-84
2022/07/18 07:30:23;;;;;;;8.70;5.78;;;;;;;;;;4982862;28;20403;-82
2022/07/18 07:32:50;;;;;;;8.07;5.85;;;;;;;;;;4981176;28;20466;-83
2022/07/18 07:35:17;;;;;;;9.35;6.50;;;;;;;;;;4983829;28;20025;-81
2022/07/18 07:37:47;;;;;;;42.47;22.60;;;;;;;;;;4979508;28;20026;-82
2022/07/18 07:40:14;;;;;;;18.83;10.63;;;;;;;;;;4982258;28;20122;-83
2022/07/18 07:42:41;;;;;;;9.02;4.40;;;;;;;;;;4980200;28;20039;-83
2022/07/18 07:45:08;;;;;;;16.97;8.17;;;;;;;;;;4978933;28;20078;-82
2022/07/18 07:47:35;;;;;;;7.65;4.45;;;;;;;;;;4982668;28;20069;-83
2022/07/18 07:50:01;;;;;;;5.22;3.25;;;;;;;;;;4987812;28;20023;-83
2022/07/18 07:52:28;;;;;;;6.97;3.65;;;;;;;;;;4987966;28;20011;-84
2022/07/18 07:54:55;;;;;;;6.15;3.90;;;;;;;;;;4983133;28;20023;-80
2022/07/18 07:57:21;;;;;;;4.07;2.90;;;;;;;;;;4958929;28;20400;-82
2022/07/18 07:59:47;;;;;;;5.35;2.85;;;;;;;;;;4974625;28;20048;-82
2022/07/18 08:02:14;;;;;;;3.58;2.75;;;;;;;;;;4972702;28;20018;-84
2022/07/18 08:04:40;;;;;;;;;;;;;;;;;;4974566;28;20026;-82
2022/07/18 08:07:07;;;;;;;8.57;5.55;;;;;;;;;;4974166;28;20320;-83
2022/07/18 08:09:33;;;;;;;5.25;3.47;;;;;;;;;;4974301;28;20476;-82
2022/07/18 08:11:59;;;;;;;6.68;2.88;;;;;;;;;;4973138;28;20051;-84
2022/07/18 08:14:25;;;;;;;11.98;8.18;;;;;;;;;;4973129;28;20050;-83
2022/07/18 08:16:51;;;;;;;8.40;3.25;;;;;;;;;;4977413;28;20102;-82
2022/07/18 08:19:17;;;;;;;4.40;3.17;;;;;;;;;;4975032;28;20062;-83
2022/07/18 08:21:43;;;;;;;3.58;2.17;;;;;;;;;;4974779;28;20023;-83
2022/07/18 08:24:10;;;;;;;6.03;3.10;;;;;;;;;;4975177;28;20034;-82
2022/07/18 08:26:38;;;;;;;6.63;3.07;;;23.20;67.00;;;;;;4972809;28;20026;-82
2022/07/18 08:29:08;;;;;;;5.85;3.67;;;26.80;51.10;;;;;;4973603;28;20038;-83
2022/07/18 08:31:34;;;;;;;9.60;5.68;;;27.20;48.80;;;;;;4972261;28;20054;-82
2022/07/18 08:34:00;;;;;;;4.43;2.40;;;27.00;49.00;;;;;;4974154;28;20459;-82
2022/07/18 08:36:26;;;;;;;7.60;2.85;;;26.70;48.30;;;;;;4973023;28;20027;-82
2022/07/18 08:38:52;;;;;;;5.18;3.08;;;27.00;47.60;;;;;;4973389;28;20081;-83
2022/07/18 08:41:18;;;;;;;6.60;2.88;;;27.60;47.30;;;;;;4973607;28;20050;-82
2022/07/18 08:43:45;;;;;;;7.57;3.03;;;28.10;47.40;;;;;;4974437;28;20034;-82
2022/07/18 08:46:12;;;;;;;9.10;2.70;;;28.30;46.40;;;;;;4973585;28;20377;-83
2022/07/18 08:48:42;;;;;;;4.72;2.67;;;28.60;45.80;;;;;;4971828;28;20042;-84
2022/07/18 08:51:09;;;;;;;8.57;2.67;;;28.90;45.70;;;;;;4956859;28;20085;-83
2022/07/18 08:53:35;;;;;;;;;;;29.00;45.40;;;;;;4973718;28;20030;-82
2022/07/18 08:56:01;;;;;;;3.90;2.38;;;28.80;46.70;;;;;;4955654;28;19917;-84
2022/07/18 08:58:27;;;;;;;6.57;2.30;;;28.80;45.30;;;;;;4973457;28;20720;-82
2022/07/18 09:00:53;;;;;;;4.40;2.22;;;28.80;44.30;;;;;;4973780;28;20145;-81
2022/07/18 09:03:19;;;;;;;2.83;1.63;;;28.00;45.10;;;;;;4974388;28;20459;-82
2022/07/18 09:05:45;;;;;;;5.25;2.20;;;27.60;45.80;;;;;;4956990;28;20031;-82
2022/07/18 09:08:19;;;;;;;6.20;2.95;;;28.00;46.40;;;;;;4975567;28;20111;-81
2022/07/18 09:10:54;;;;;;;9.38;5.10;;;27.50;46.70;;;;;;4974976;28;20050;-84
2022/07/18 09:13:36;;;;;;;6.35;2.72;;;26.70;47.70;;;;;;4975500;28;20194;-81
2022/07/18 09:16:11;;;;;;;18.40;13.95;;;26.20;49.30;;;;;;4957733;28;20427;-81
2022/07/18 09:18:45;;;;;;;2.28;1.85;;;25.90;50.20;;;;;;4974540;28;20057;-83
2022/07/18 09:21:21;;;;;;;3.78;1.80;;;25.40;49.90;;;;;;4974192;28;20024;-82
2022/07/18 09:23:49;;;;;;;2.35;1.65;;;25.30;49.50;;;;;;4956260;28;20070;-84
2022/07/18 09:26:42;;;;;;;4.28;2.22;;;25.90;49.00;;;;;;4980792;28;20023;-81
2022/07/18 09:29:14;;;;;;;4.88;2.38;;;26.90;48.40;;;;;;4981317;28;20030;-82
2022/07/18 09:31:49;;;;;;;3.03;2.30;;;27.40;47.10;;;;;;4976668;28;20522;-83
2022/07/18 09:34:31;;;;;;;7.00;3.47;;;26.80;47.20;;;;;;4959182;28;20109;-83
2022/07/18 09:36:58;;;;;;;4.28;2.22;;;26.10;47.70;;;;;;4974884;28;20046;-82
2022/07/18 09:39:24;;;;;;;9.27;3.08;;;25.20;48.60;;;;;;4976665;28;20025;-83
2022/07/18 09:41:49;;;;;;;6.30;4.50;;;24.70;49.70;;;;;;4976653;28;20034;-82
2022/07/18 09:44:17;;;;;;;4.68;2.05;;;24.40;51.10;;;;;;4977284;28;20369;-82
2022/07/18 09:47:02;;;;;;;2.22;1.77;;;24.20;50.60;;;;;;4977182;28;20027;-84
2022/07/18 09:49:33;;;;;;;3.10;1.92;;;23.80;51.00;;;;;;4960163;28;20014;-84
2022/07/18 09:52:05;;;;;;;6.38;3.45;;;23.60;51.90;;;;;;4976835;28;20046;-84
2022/07/18 09:54:42;;;;;;;11.50;6.70;;;23.40;52.90;;;;;;4958018;28;20027;-85
2022/07/18 09:57:09;;;;;;;10.10;5.85;;;23.10;53.50;;;;;;4976066;28;20023;-83
2022/07/18 09:59:36;;;;;;;6.97;2.70;;;22.90;54.00;;;;;;4958792;28;20072;-84
2022/07/18 10:02:05;;;;;;;5.35;2.53;;;23.10;54.40;;;;;;4976627;28;20058;-82
2022/07/18 10:04:31;;;;;;;3.33;2.00;;;23.40;53.80;;;;;;4962732;28;20042;-83
2022/07/18 10:06:57;;;;;;;5.07;2.33;;;23.60;53.20;;;;;;4958569;28;20483;-82
2022/07/18 10:09:23;;;;;;;3.30;2.30;;;23.80;52.60;;;;;;4976046;28;20042;-84
2022/07/18 10:11:49;;;;;;;6.67;2.43;;;23.80;52.60;;;;;;4974747;28;20042;-84
2022/07/18 10:14:15;;;;;;;3.47;1.80;;;23.80;52.40;;;;;;4958390;28;20073;-84
2022/07/18 10:16:42;;;;;;;7.03;2.22;;;23.70;52.40;;;;;;4975976;28;20038;-86
2022/07/18 10:19:08;;;;;;;6.05;2.92;;;23.80;52.50;;;;;;4974630;28;20054;-83
2022/07/18 10:21:34;;;;;;;5.05;2.70;;;23.90;52.50;;;;;;4976159;28;20460;-82
2022/07/18 10:24:01;;;;;;;3.45;2.28;;;23.60;52.90;;;;;;4974332;28;20045;-82
2022/07/18 10:26:28;;;;;;;;;;;23.60;53.20;;;;;;4976168;28;20019;-82
2022/07/18 10:28:56;;;;;;;3.95;2.25;;;23.70;53.00;;;;;;4974739;28;19917;-81
2022/07/18 10:31:24;;;;;;;4.53;1.75;;;23.40;52.50;;;;;;4975642;28;20081;-82
2022/07/18 10:33:54;;;;;;;3.05;2.00;;;23.10;52.90;;;;;;4975508;28;20031;-83
2022/07/18 10:36:21;;;;;;;2.15;1.70;;;22.90;53.70;;;;;;4975423;28;20395;-83
2022/07/18 10:39:25;;;;;;;;;;;22.80;53.30;;;;;;4974565;28;20883;-83
2022/07/18 10:42:11;;;;;;;5.45;2.53;;;22.80;53.30;;;;;;4968371;28;19910;-83
2022/07/18 10:44:40;;;;;;;4.67;2.50;;;23.10;53.90;;;;;;4973968;28;20039;-85
2022/07/18 10:47:20;;;;;;;3.58;2.63;;;23.50;53.70;;;;;;4974248;28;20019;-82
2022/07/18 10:49:48;;;;;;;4.43;2.35;;;24.10;52.10;;;;;;4957870;28;20031;-82
2022/07/18 10:52:29;;;;;;;3.67;2.20;;;24.50;51.40;;;;;;4975323;28;20106;-82
2022/07/18 10:55:06;;;;;;;6.00;2.55;;;24.70;50.80;;;;;;4974588;28;20026;-83
2022/07/18 10:57:34;;;;;;;3.35;2.08;;;24.70;51.20;;;;;;4975050;28;20084;-83
2022/07/18 11:00:11;;;;;;;2.90;2.58;;;24.40;50.50;;;;;;4975241;28;20051;-83
2022/07/18 11:02:46;;;;;;;3.40;2.13;;;24.30;51.00;;;;;;4957212;28;20685;-83
2022/07/18 11:05:24;;;;;;;5.28;2.13;;;24.20;51.10;;;;;;4979375;28;20049;-83
2022/07/18 11:08:02;;;;;;;3.42;2.10;;;24.20;50.80;;;;;;4975075;28;20030;-83
2022/07/18 11:10:50;;;;;;;4.10;2.00;;;24.30;50.30;;;;;;4975011;28;20031;-84
2022/07/18 11:13:58;;;;;;;3.70;1.80;;;24.50;50.10;;;;;;4969287;28;20058;-82
2022/07/18 11:16:25;;;;;;;5.78;2.08;;;24.70;50.20;;;;;;4974135;28;20035;-83
2022/07/18 11:18:51;;;;;;;5.53;1.83;;;24.90;49.90;;;;;;4976332;28;20035;-82
2022/07/18 11:21:30;;;;;;;5.20;2.03;;;25.00;49.10;;;;;;4975029;28;20034;-84
2022/07/18 11:24:01;;;;;;;3.35;2.33;;;24.90;49.10;;;;;;4975268;28;20369;-81
2022/07/18 11:26:28;;;;;;;4.47;2.58;;;24.90;48.90;;;;;;4973857;28;20172;-84
2022/07/18 11:29:09;;;;;;;5.88;2.55;;;24.90;49.10;;;;;;4974875;28;20380;-82
2022/07/18 11:31:54;;;;;;;5.75;2.67;;;25.00;49.00;;;;;;4974597;28;20026;-82
2022/07/18 11:34:21;;;;;;;2.70;1.85;;;24.80;48.90;;;;;;4974844;28;20019;-79
2022/07/18 11:36:47;;;;;;;;;;;24.60;49.00;;;;;;4974508;28;20446;-84
2022/07/18 11:39:15;;;;;;;4.50;2.13;;;24.40;49.60;;;;;;4974123;28;19949;-83
2022/07/18 11:41:41;;;;;;;3.35;2.20;;;24.20;50.10;;;;;;4974064;28;20480;-83
2022/07/18 11:44:20;;;;;;;4.97;2.55;;;24.00;50.60;;;;;;4973349;28;20077;-82
2022/07/18 11:46:46;;;;;;;4.10;3.03;;;23.90;51.00;;;;;;4974065;28;20067;-82
2022/07/18 11:49:12;;;;;;;5.10;3.10;;;23.70;51.70;;;;;;4973783;28;20019;-83
2022/07/18 11:51:43;;;;;;;4.47;2.30;;;23.60;52.30;;;;;;4973969;28;20077;-82
2022/07/18 11:54:10;;;;;;;5.32;2.40;;;23.50;52.30;;;;;;4973118;28;20433;-83
2022/07/18 11:56:51;;;;;;;4.78;2.60;;;23.40;52.50;;;;;;4973511;28;20384;-82
2022/07/18 11:59:17;;;;;;;3.95;2.85;;;;;;;;;;4972259;28;20031;-82
2022/07/18 12:01:44;;;;;;;4.88;3.00;;;;;;;;;;4972336;28;20401;-81
2022/07/18 12:04:20;;;;;;;2.03;1.63;;;;;;;;;;4972243;28;20043;-83
2022/07/18 12:07:06;;;;;;;4.13;2.47;;;;;;;;;;4973763;28;20023;-82
2022/07/18 12:09:32;;;;;;;6.93;2.83;;;;;;;;;;4973762;28;20038;-81
2022/07/18 12:12:07;;;;;;;4.53;2.00;;;;;;;;;;4973396;28;20046;-82
2022/07/18 12:14:33;;;;;;;5.90;2.88;;;;;;;;;;4980188;28;20034;-81
2022/07/18 12:16:59;;;;;;;5.65;2.55;;;;;;;;;;4984760;28;20038;-82
2022/07/18 12:19:36;;;;;;;6.85;3.38;;;;;;;;;;4978985;28;20022;-82
2022/07/18 12:22:05;;;;;;;5.95;3.03;;;;;;;;;;4974069;28;20027;-83
2022/07/18 12:24:32;;;;;;;5.78;3.05;;;;;;;;;;4973607;28;20039;-84
2022/07/18 12:27:09;;;;;;;5.53;2.80;;;;;;;;;;4973492;28;20030;-81
2022/07/18 12:29:35;;;;;;;;;;;;;;;;;;4974300;28;20095;-81
2022/07/18 12:32:15;;;;;;;2.83;1.95;;;;;;;;;;4978029;28;19945;-83
2022/07/18 12:34:53;;;;;;;4.10;2.17;;;;;;;;;;4974854;28;20129;-83
2022/07/18 12:37:24;;;;;;;3.47;1.83;;;;;;;;;;4974346;28;20030;-82
2022/07/18 12:39:56;;;;;;;5.72;2.58;;;;;;;;;;4975164;28;20065;-80
2022/07/18 12:42:30;;;;;;;6.93;2.65;;;;;;;;;;4973383;28;20023;-83
2022/07/18 12:44:56;;;;;;;7.15;2.20;;;;;;;;;;4973150;28;20027;-85
2022/07/18 12:47:22;;;;;;;5.45;2.65;;;;;;;;;;4973326;28;20057;-82
2022/07/18 12:49:48;;;;;;;6.50;2.65;;;;;;;;;;4973196;28;20031;-82
2022/07/18 12:52:14;;;;;;;5.35;2.70;;;;;;;;;;4972889;28;20034;-83
2022/07/18 12:54:40;;;;;;;4.88;3.05;;;;;;;;;;4973705;28;20488;-82
2022/07/18 12:57:06;;;;;;;3.78;2.50;;;;;;;;;;4973099;28;20027;-82
2022/07/18 12:59:32;;;;;;;7.55;2.55;;;;;;;;;;4973265;28;20567;-83
2022/07/18 13:01:58;;;;;;;4.93;2.67;;;;;;;;;;4973218;28;20023;-83
2022/07/18 13:04:25;;;;;;;4.85;2.35;;;;;;;;;;4971224;28;20031;-84
2022/07/18 13:06:51;;;;;;;4.53;2.53;;;;;;;;;;4971951;28;20116;-82
2022/07/18 13:09:17;;;;;;;3.72;2.67;;;;;;;;;;4972850;28;20031;-82
2022/07/18 13:11:47;;;;;;;3.65;2.67;;;;;;;;;;4973026;28;20082;-81
2022/07/18 13:14:13;;;;;;;7.15;2.97;;;;;;;;;;4973315;28;20023;-83
2022/07/18 13:16:39;;;;;;;5.57;2.60;;;;;;;;;;4973121;28;20023;-82
2022/07/18 13:19:05;;;;;;;4.85;2.45;;;;;;;;;;4973333;28;20065;-84